Portada
METAR-TAF:

METAR-TAF

Aeropuertos :

Kermanshah, Irán

latitud: 34-16N, longitud: 047-07E, altitud: 1320 m

Observación

El informe se hizo hace 21 minutos, a las 06:00 UTC
Viento 17 kt del este-sureste
Temperatura 7°C
Humedad 87%
Presión 1005 hPa
Visibilidad: 8000 m
Escasas nubes a una altura de 2000 ft
Nubes dispersas a una altura de 3000 ft, Cumulonimbus.
Nubes dispersas a una altura de 4000 ft
Cielo cubierto a una altura de 7000 ft
chaparrones de lluvia

METAR: OICC 250600Z 11017KT 8000 -SHRA FEW020 SCT030CB SCT040 OVC070 07/05 Q1004 A2968 TEMPO TSRA

Hora: 10:51 (06:21 UTC)


TAF: falta

Observaciones y pronósticos meteorológicos de más de 4000 aeropuertos (mensajes METAR y TAF).

Los puntos amarillos y rojos representan las estaciones disponibles.

Ponga el ratón en el punto deseado para ver el nombre de la estación.

Haga clic para ver las observaciones y los pronósticos meteorológicos.

Para cambiar el mapa : haga clic en los botones verdes con una cruz de color negro para hacer un zoom, en el botón verde con un guión para alejar o en las flechas verdes para mapas adyacentes.


METAR-TAF: